createdAt,value
2017-01-26T00:00:12.573Z,0
2017-01-26T00:01:12.702Z,0
2017-01-26T00:02:13.533Z,0
2017-01-26T00:03:13.394Z,0
2017-01-26T00:04:13.217Z,0
2017-01-26T00:05:12.016Z,0
2017-01-26T00:06:13.907Z,0
2017-01-26T00:07:13.135Z,0
2017-01-26T00:08:12.664Z,0
2017-01-26T00:09:13.503Z,0
2017-01-26T00:10:12.847Z,0
2017-01-26T00:11:13.897Z,0
2017-01-26T00:12:14.188Z,0
2017-01-26T00:13:12.829Z,0
2017-01-26T00:14:12.869Z,0
2017-01-26T00:15:12.855Z,0
2017-01-26T00:16:14.443Z,0
2017-01-26T00:17:13.808Z,0
2017-01-26T00:18:14.310Z,0
2017-01-26T00:19:13.419Z,0
2017-01-26T00:20:13.312Z,0
2017-01-26T00:21:13.741Z,0
2017-01-26T00:22:12.568Z,0
2017-01-26T00:23:12.762Z,0
2017-01-26T00:24:12.393Z,0
2017-01-26T00:25:13.357Z,0
2017-01-26T00:26:13.645Z,0
2017-01-26T00:27:12.861Z,0
2017-01-26T00:28:15.692Z,0
2017-01-26T00:29:13.026Z,0
2017-01-26T00:30:13.324Z,0
2017-01-26T00:31:12.000Z,0
2017-01-26T00:32:13.229Z,0
2017-01-26T00:33:12.911Z,0
2017-01-26T00:34:12.484Z,0
2017-01-26T00:35:12.342Z,0
2017-01-26T00:36:13.432Z,0
2017-01-26T00:37:14.893Z,0
2017-01-26T00:38:12.799Z,0
2017-01-26T00:39:13.130Z,0
2017-01-26T00:40:12.994Z,0
2017-01-26T00:41:13.190Z,0
2017-01-26T00:42:13.105Z,0
2017-01-26T00:43:14.061Z,0
2017-01-26T00:44:13.216Z,0
2017-01-26T00:45:13.561Z,0
2017-01-26T00:46:14.366Z,0
2017-01-26T00:47:14.312Z,0
2017-01-26T00:48:13.912Z,0
2017-01-26T00:49:13.646Z,0
2017-01-26T00:50:13.475Z,0
2017-01-26T00:51:13.644Z,0
2017-01-26T00:52:13.099Z,0
2017-01-26T00:53:13.281Z,0
2017-01-26T00:54:12.477Z,0
2017-01-26T00:55:13.194Z,0
2017-01-26T00:56:13.564Z,0
2017-01-26T00:57:13.618Z,0
2017-01-26T00:58:14.494Z,0
2017-01-26T00:59:15.237Z,0
2017-01-26T01:00:14.004Z,0
2017-01-26T01:01:13.300Z,0
2017-01-26T01:02:14.179Z,0
2017-01-26T01:03:14.429Z,0
2017-01-26T01:04:13.012Z,0
2017-01-26T01:05:13.736Z,0
2017-01-26T01:06:14.108Z,0
2017-01-26T01:07:14.332Z,0
2017-01-26T01:08:15.086Z,0
2017-01-26T01:09:14.125Z,0
2017-01-26T01:10:13.673Z,0
2017-01-26T01:11:14.946Z,0
2017-01-26T01:12:13.470Z,0
2017-01-26T01:13:15.371Z,0
2017-01-26T01:14:14.017Z,0
2017-01-26T01:15:13.064Z,0
2017-01-26T01:16:12.773Z,0
2017-01-26T01:17:15.859Z,0
2017-01-26T01:18:14.324Z,0
2017-01-26T01:19:13.191Z,0
2017-01-26T01:20:14.368Z,0
2017-01-26T01:21:13.868Z,0
2017-01-26T01:22:15.048Z,0
2017-01-26T01:23:14.938Z,0
2017-01-26T01:24:14.514Z,0
2017-01-26T01:25:14.207Z,0
2017-01-26T01:26:14.492Z,0
2017-01-26T01:27:14.010Z,0
2017-01-26T01:28:15.039Z,0
2017-01-26T01:29:13.723Z,0
2017-01-26T01:30:13.623Z,0
2017-01-26T01:31:13.567Z,0
2017-01-26T01:32:13.189Z,0
2017-01-26T01:33:14.294Z,0
2017-01-26T01:34:12.733Z,0
2017-01-26T01:35:14.155Z,0
2017-01-26T01:36:13.742Z,0
2017-01-26T01:37:13.619Z,0
2017-01-26T01:38:13.180Z,0
2017-01-26T01:39:14.177Z,0
2017-01-26T01:40:13.361Z,0
2017-01-26T01:41:13.558Z,0
2017-01-26T01:42:14.318Z,0
2017-01-26T01:43:13.192Z,0
2017-01-26T01:44:14.264Z,0
2017-01-26T01:45:13.535Z,0
2017-01-26T01:46:14.316Z,0
2017-01-26T01:47:13.077Z,0
2017-01-26T01:48:15.652Z,0
2017-01-26T01:49:13.230Z,0
2017-01-26T01:50:14.365Z,0
2017-01-26T01:51:14.447Z,0
2017-01-26T01:52:14.365Z,0
2017-01-26T01:53:14.001Z,0
2017-01-26T01:54:13.453Z,0
2017-01-26T01:55:14.222Z,0
2017-01-26T01:56:13.962Z,0
2017-01-26T01:57:15.008Z,0
2017-01-26T01:58:13.660Z,0
2017-01-26T01:59:15.598Z,0
2017-01-26T02:00:13.975Z,0
2017-01-26T02:01:15.045Z,0
2017-01-26T02:02:13.647Z,0
2017-01-26T02:03:14.213Z,0
2017-01-26T02:04:13.415Z,0
2017-01-26T02:05:15.191Z,0
2017-01-26T02:06:14.013Z,0
2017-01-26T02:07:14.164Z,0
2017-01-26T02:08:15.289Z,0
2017-01-26T02:09:13.992Z,0
2017-01-26T02:10:15.260Z,0
2017-01-26T02:11:14.039Z,0
2017-01-26T02:12:15.547Z,0
2017-01-26T02:13:13.226Z,0
2017-01-26T02:14:13.413Z,0
2017-01-26T02:15:15.452Z,0
2017-01-26T02:16:14.161Z,0
2017-01-26T02:17:15.385Z,0
2017-01-26T02:18:14.458Z,0
2017-01-26T02:19:15.128Z,0
2017-01-26T02:20:14.909Z,0
2017-01-26T02:21:14.190Z,0
2017-01-26T02:22:13.402Z,0
2017-01-26T02:23:15.328Z,0
2017-01-26T02:24:13.906Z,0
2017-01-26T02:25:13.382Z,0
2017-01-26T02:26:13.815Z,0
2017-01-26T02:27:14.894Z,0
2017-01-26T02:28:16.442Z,0
2017-01-26T02:29:15.474Z,0
2017-01-26T02:30:15.280Z,0
2017-01-26T02:31:15.004Z,0
2017-01-26T02:32:14.003Z,0
2017-01-26T02:33:14.396Z,0
2017-01-26T02:34:15.561Z,0
2017-01-26T02:35:15.446Z,0
2017-01-26T02:36:14.167Z,0
2017-01-26T02:37:14.964Z,0
2017-01-26T02:38:14.157Z,0
2017-01-26T02:39:15.133Z,0
2017-01-26T02:40:14.858Z,0
2017-01-26T02:41:13.855Z,0
2017-01-26T02:42:14.669Z,0
2017-01-26T02:43:13.630Z,0
2017-01-26T02:44:14.828Z,0
2017-01-26T02:45:14.543Z,0
2017-01-26T02:46:15.466Z,0
2017-01-26T02:47:15.459Z,0
2017-01-26T02:48:13.925Z,0
2017-01-26T02:49:13.643Z,0
2017-01-26T02:50:14.557Z,0
2017-01-26T02:51:14.383Z,0
2017-01-26T02:52:15.360Z,0
2017-01-26T02:53:15.678Z,0
2017-01-26T02:54:14.408Z,0
2017-01-26T02:55:15.864Z,0
2017-01-26T02:56:17.105Z,0
2017-01-26T02:57:16.450Z,0
2017-01-26T02:58:15.868Z,0
2017-01-26T02:59:16.668Z,0
2017-01-26T03:00:14.605Z,0
2017-01-26T03:01:14.214Z,0
2017-01-26T03:02:15.429Z,0
2017-01-26T03:03:15.441Z,0
2017-01-26T03:04:13.877Z,0
2017-01-26T03:05:15.452Z,0
2017-01-26T03:06:14.437Z,0
2017-01-26T03:07:16.161Z,0
2017-01-26T03:08:16.200Z,0
2017-01-26T03:09:15.213Z,0
2017-01-26T03:10:14.620Z,0
2017-01-26T03:11:15.495Z,0
2017-01-26T03:12:14.894Z,0
2017-01-26T03:13:14.200Z,0
2017-01-26T03:14:15.765Z,0
2017-01-26T03:15:16.728Z,0
2017-01-26T03:16:14.896Z,0
2017-01-26T03:17:15.344Z,0
2017-01-26T03:18:15.616Z,0
2017-01-26T03:19:17.267Z,0
2017-01-26T03:20:18.750Z,0
2017-01-26T03:21:14.686Z,0
2017-01-26T03:22:15.921Z,0
2017-01-26T03:23:14.612Z,0
2017-01-26T03:24:14.607Z,0
2017-01-26T03:25:14.622Z,0
2017-01-26T03:26:15.793Z,0
2017-01-26T03:27:17.281Z,0
2017-01-26T03:28:14.365Z,0
2017-01-26T03:29:16.236Z,0
2017-01-26T03:30:14.706Z,0
2017-01-26T03:31:16.134Z,0
2017-01-26T03:32:15.530Z,0
2017-01-26T03:33:13.839Z,0
2017-01-26T03:34:16.594Z,0
2017-01-26T03:35:15.671Z,0
2017-01-26T03:36:15.998Z,0
2017-01-26T03:37:16.337Z,0
2017-01-26T03:38:16.292Z,0
2017-01-26T03:39:16.078Z,0
2017-01-26T03:40:15.168Z,0
2017-01-26T03:41:14.547Z,0
2017-01-26T03:42:14.418Z,0
2017-01-26T03:43:15.276Z,0
2017-01-26T03:44:15.221Z,0
2017-01-26T03:45:15.786Z,0
2017-01-26T03:46:15.822Z,0
2017-01-26T03:47:16.191Z,0
2017-01-26T03:48:15.332Z,0
2017-01-26T03:49:16.445Z,0
2017-01-26T03:50:15.978Z,0
2017-01-26T03:51:14.843Z,0
2017-01-26T03:52:15.878Z,0
2017-01-26T03:53:16.182Z,0
2017-01-26T03:54:16.001Z,0
2017-01-26T03:55:15.037Z,0
2017-01-26T03:56:16.398Z,0
2017-01-26T03:57:15.103Z,0
2017-01-26T03:58:17.120Z,0
2017-01-26T03:59:15.397Z,0
2017-01-26T04:00:16.253Z,0
2017-01-26T04:01:15.249Z,0
2017-01-26T04:02:15.864Z,0
2017-01-26T04:03:16.020Z,0
2017-01-26T04:04:16.086Z,0
2017-01-26T04:05:16.222Z,0
2017-01-26T04:06:15.107Z,0
2017-01-26T04:07:16.589Z,0
2017-01-26T04:08:16.692Z,0
2017-01-26T04:09:17.228Z,0
2017-01-26T04:10:16.260Z,0
2017-01-26T04:11:15.780Z,0
2017-01-26T04:12:15.335Z,0
2017-01-26T04:13:15.368Z,0
2017-01-26T04:14:15.203Z,0
2017-01-26T04:15:15.484Z,0
2017-01-26T04:16:16.821Z,0
2017-01-26T04:17:16.278Z,0
2017-01-26T04:18:16.096Z,0
2017-01-26T04:19:15.408Z,0
2017-01-26T04:20:15.505Z,0
2017-01-26T04:21:16.014Z,0
2017-01-26T04:22:17.383Z,0
2017-01-26T04:23:16.807Z,0
2017-01-26T04:24:16.759Z,0
2017-01-26T04:25:17.586Z,0
2017-01-26T04:26:16.763Z,0
2017-01-26T04:27:15.495Z,0
2017-01-26T04:28:16.256Z,0
2017-01-26T04:29:17.681Z,0
2017-01-26T04:30:16.123Z,0
2017-01-26T04:31:18.445Z,0
2017-01-26T04:32:15.803Z,0
2017-01-26T04:33:16.517Z,0
2017-01-26T04:34:17.109Z,0
2017-01-26T04:35:16.846Z,0
2017-01-26T04:36:16.911Z,0
2017-01-26T04:37:15.647Z,0
2017-01-26T04:38:15.742Z,0
2017-01-26T04:39:16.131Z,0
2017-01-26T04:40:16.183Z,0
2017-01-26T04:41:16.224Z,0
2017-01-26T04:42:15.927Z,0
2017-01-26T04:43:16.562Z,0
2017-01-26T04:44:16.004Z,0
2017-01-26T04:45:16.271Z,0
2017-01-26T04:46:16.451Z,0
2017-01-26T04:47:16.345Z,0
2017-01-26T04:48:15.689Z,0
2017-01-26T04:49:16.606Z,0
2017-01-26T04:50:15.893Z,0
2017-01-26T04:51:16.437Z,0
2017-01-26T04:52:16.147Z,0
2017-01-26T04:53:15.455Z,0
2017-01-26T04:54:17.816Z,0
2017-01-26T04:55:16.106Z,0
2017-01-26T04:56:15.472Z,0
2017-01-26T04:57:16.830Z,0
2017-01-26T04:58:15.223Z,0
2017-01-26T04:59:17.228Z,0
2017-01-26T05:00:16.548Z,0
2017-01-26T05:01:18.229Z,0
2017-01-26T05:02:18.447Z,0
2017-01-26T05:03:16.448Z,0
2017-01-26T05:04:18.355Z,0
2017-01-26T05:05:17.123Z,0
2017-01-26T05:06:14.951Z,0
2017-01-26T05:07:16.076Z,0
2017-01-26T05:08:16.880Z,0
2017-01-26T05:09:17.172Z,0
2017-01-26T05:10:17.213Z,0
2017-01-26T05:11:17.507Z,0
2017-01-26T05:12:16.633Z,0
2017-01-26T05:13:15.389Z,0
2017-01-26T05:14:16.662Z,0
2017-01-26T05:15:16.081Z,0
2017-01-26T05:16:17.284Z,0
2017-01-26T05:17:18.331Z,0
2017-01-26T05:18:17.555Z,0
2017-01-26T05:19:17.077Z,0
2017-01-26T05:20:16.942Z,0
2017-01-26T05:21:17.567Z,0
2017-01-26T05:22:17.098Z,0
2017-01-26T05:23:16.735Z,0
2017-01-26T05:24:17.254Z,0
2017-01-26T05:25:17.369Z,0
2017-01-26T05:26:16.922Z,0
2017-01-26T05:27:16.117Z,0
2017-01-26T05:28:17.632Z,0
2017-01-26T05:29:16.890Z,0
2017-01-26T05:30:16.931Z,0
2017-01-26T05:31:16.686Z,0
2017-01-26T05:32:18.392Z,0
2017-01-26T05:33:18.103Z,0
2017-01-26T05:34:16.688Z,0
2017-01-26T05:35:16.567Z,0
2017-01-26T05:36:18.175Z,0
2017-01-26T05:37:18.378Z,0
2017-01-26T05:38:17.194Z,0
2017-01-26T05:39:16.212Z,0
2017-01-26T05:40:17.106Z,0
2017-01-26T05:41:18.363Z,0
2017-01-26T05:42:18.782Z,0
2017-01-26T05:43:16.372Z,0
2017-01-26T05:44:19.366Z,0
2017-01-26T05:45:15.967Z,0
2017-01-26T05:46:19.787Z,0
2017-01-26T05:47:18.944Z,0
2017-01-26T05:48:16.691Z,0
2017-01-26T05:49:16.847Z,0
2017-01-26T05:50:16.587Z,0
2017-01-26T05:51:18.801Z,0
2017-01-26T05:52:17.989Z,0
2017-01-26T05:53:16.750Z,0
2017-01-26T05:54:18.414Z,0
2017-01-26T05:55:17.062Z,0
2017-01-26T05:56:15.928Z,0
2017-01-26T05:57:18.263Z,0
2017-01-26T05:58:17.802Z,0
2017-01-26T05:59:17.393Z,0
2017-01-26T06:00:16.785Z,0
2017-01-26T06:01:18.944Z,0
2017-01-26T06:02:17.976Z,0
2017-01-26T06:03:18.400Z,0
2017-01-26T06:04:18.806Z,0
2017-01-26T06:05:16.664Z,0
2017-01-26T06:06:17.777Z,0
2017-01-26T06:07:17.363Z,0
2017-01-26T06:08:17.638Z,0
2017-01-26T06:09:17.102Z,0
2017-01-26T06:10:17.475Z,0
2017-01-26T06:11:16.614Z,0
2017-01-26T06:12:17.558Z,0
2017-01-26T06:13:18.595Z,0
2017-01-26T06:14:18.393Z,0
2017-01-26T06:15:17.818Z,0
2017-01-26T06:16:16.614Z,0
2017-01-26T06:17:18.617Z,0
2017-01-26T06:18:17.703Z,0
2017-01-26T06:19:22.779Z,0
2017-01-26T06:20:17.135Z,0
2017-01-26T06:21:20.756Z,0
2017-01-26T06:22:17.797Z,0
2017-01-26T06:23:17.717Z,0
2017-01-26T06:24:16.510Z,0
2017-01-26T06:25:17.894Z,0
2017-01-26T06:26:17.645Z,0
2017-01-26T06:27:17.779Z,0
2017-01-26T06:28:16.913Z,0
2017-01-26T06:29:18.431Z,0
2017-01-26T06:30:18.195Z,0
2017-01-26T06:31:16.227Z,0
2017-01-26T06:32:17.114Z,0
2017-01-26T06:33:19.069Z,0
2017-01-26T06:34:17.694Z,0
2017-01-26T06:35:18.010Z,0
2017-01-26T06:37:20.694Z,0
2017-01-26T06:38:21.097Z,0
2017-01-26T06:39:20.171Z,0
2017-01-26T06:40:18.860Z,0
2017-01-26T06:41:22.385Z,0
2017-01-26T06:42:19.486Z,0
2017-01-26T06:43:18.474Z,0
2017-01-26T06:44:19.776Z,0
2017-01-26T06:45:18.129Z,0
2017-01-26T06:46:16.226Z,0
2017-01-26T06:47:18.742Z,0
2017-01-26T06:48:18.414Z,0
2017-01-26T06:49:19.136Z,0
2017-01-26T06:50:18.469Z,0
2017-01-26T06:51:19.018Z,0
2017-01-26T06:52:15.111Z,0
2017-01-26T06:53:16.507Z,0
2017-01-26T06:54:17.790Z,0
2017-01-26T06:55:19.151Z,0
2017-01-26T06:56:19.149Z,0
2017-01-26T06:57:18.020Z,0
2017-01-26T06:58:17.775Z,0
2017-01-26T06:59:18.489Z,5
2017-01-26T07:00:17.875Z,5
2017-01-26T07:01:17.953Z,5
2017-01-26T07:02:18.705Z,5
2017-01-26T07:03:18.088Z,5
2017-01-26T07:04:17.845Z,5
2017-01-26T07:05:16.476Z,10
2017-01-26T07:06:16.175Z,10
2017-01-26T07:07:16.265Z,10
2017-01-26T07:08:17.182Z,10
2017-01-26T07:09:15.967Z,15
2017-01-26T07:10:17.315Z,15
2017-01-26T07:11:16.629Z,15
2017-01-26T07:12:18.187Z,20
2017-01-26T07:13:16.550Z,20
2017-01-26T07:14:17.585Z,20
2017-01-26T07:15:17.599Z,25
2017-01-26T07:16:18.128Z,25
2017-01-26T07:17:19.092Z,30
2017-01-26T07:18:17.596Z,30
2017-01-26T07:19:18.484Z,35
2017-01-26T07:20:17.142Z,35
2017-01-26T07:21:16.437Z,35
2017-01-26T07:22:18.385Z,40
2017-01-26T07:23:17.632Z,40
2017-01-26T07:24:17.603Z,45
2017-01-26T07:25:17.640Z,45
2017-01-26T07:26:18.361Z,50
2017-01-26T07:27:17.869Z,50
2017-01-26T07:28:19.819Z,55
2017-01-26T07:29:17.961Z,55
2017-01-26T07:30:18.161Z,60
2017-01-26T07:31:18.910Z,60
2017-01-26T07:32:17.633Z,60
2017-01-26T07:33:19.252Z,65
2017-01-26T07:34:18.829Z,65
2017-01-26T07:35:18.551Z,70
2017-01-26T07:36:16.881Z,70
2017-01-26T07:37:17.747Z,75
2017-01-26T07:38:17.216Z,75
2017-01-26T07:39:18.720Z,80
2017-01-26T07:40:18.420Z,80
2017-01-26T07:41:17.987Z,85
2017-01-26T07:42:19.082Z,85
2017-01-26T07:43:17.585Z,90
2017-01-26T07:44:17.561Z,90
2017-01-26T07:45:18.726Z,95
2017-01-26T07:46:18.989Z,95
2017-01-26T07:47:17.694Z,100
2017-01-26T07:48:17.442Z,100
2017-01-26T07:49:18.150Z,105
2017-01-26T07:50:17.967Z,105
2017-01-26T07:51:18.293Z,110
2017-01-26T07:52:18.713Z,110
2017-01-26T07:53:18.300Z,115
2017-01-26T07:54:17.217Z,115
2017-01-26T07:55:19.208Z,115
2017-01-26T07:56:17.668Z,120
2017-01-26T07:57:18.053Z,120
2017-01-26T07:58:17.443Z,125
2017-01-26T07:59:17.927Z,125
2017-01-26T08:00:19.398Z,130
2017-01-26T08:01:18.970Z,130
2017-01-26T08:02:18.756Z,135
2017-01-26T08:03:18.153Z,135
2017-01-26T08:04:18.332Z,140
2017-01-26T08:05:18.623Z,140
2017-01-26T08:06:19.192Z,140
2017-01-26T08:07:18.195Z,145
2017-01-26T08:08:17.698Z,145
2017-01-26T08:09:17.662Z,145
2017-01-26T08:10:17.991Z,150
2017-01-26T08:11:18.921Z,150
2017-01-26T08:12:17.273Z,155
2017-01-26T08:13:18.053Z,155
2017-01-26T08:14:19.693Z,155
2017-01-26T08:15:18.036Z,160
2017-01-26T08:16:19.844Z,165
2017-01-26T08:17:19.294Z,165
2017-01-26T08:18:17.890Z,165
2017-01-26T08:19:17.593Z,170
2017-01-26T08:20:17.668Z,170
2017-01-26T08:21:18.191Z,170
2017-01-26T08:22:17.561Z,175
2017-01-26T08:23:18.351Z,175
2017-01-26T08:24:18.429Z,175
2017-01-26T08:25:17.999Z,180
2017-01-26T08:26:17.426Z,180
2017-01-26T08:27:17.403Z,180
2017-01-26T08:28:18.081Z,185
2017-01-26T08:29:17.586Z,185
2017-01-26T08:30:19.383Z,185
2017-01-26T08:31:17.922Z,185
2017-01-26T08:32:18.272Z,190
2017-01-26T08:33:18.077Z,190
2017-01-26T08:34:18.595Z,195
2017-01-26T08:35:19.766Z,195
2017-01-26T08:36:18.077Z,195
2017-01-26T08:37:19.420Z,195
2017-01-26T08:38:18.783Z,200
2017-01-26T08:39:18.177Z,200
2017-01-26T08:40:18.196Z,200
2017-01-26T08:41:18.498Z,205
2017-01-26T08:42:20.428Z,205
2017-01-26T08:43:19.458Z,210
2017-01-26T08:44:18.808Z,210
2017-01-26T08:45:18.420Z,210
2017-01-26T08:46:18.933Z,210
2017-01-26T08:47:19.398Z,210
2017-01-26T08:48:17.804Z,215
2017-01-26T08:49:17.903Z,215
2017-01-26T08:50:18.766Z,220
2017-01-26T08:51:18.185Z,220
2017-01-26T08:52:18.887Z,220
2017-01-26T08:53:19.202Z,225
2017-01-26T08:54:20.033Z,225
2017-01-26T08:55:20.775Z,225
2017-01-26T08:56:18.431Z,230
2017-01-26T08:57:18.745Z,230
2017-01-26T08:58:18.106Z,230
2017-01-26T08:59:20.705Z,235
2017-01-26T09:00:19.956Z,235
2017-01-26T09:01:19.338Z,235
2017-01-26T09:02:18.701Z,235
2017-01-26T09:03:18.711Z,240
2017-01-26T09:04:19.820Z,240
2017-01-26T09:05:18.549Z,240
2017-01-26T09:06:18.738Z,240
2017-01-26T09:07:18.818Z,240
2017-01-26T09:08:18.526Z,245
2017-01-26T09:09:18.818Z,245
2017-01-26T09:10:18.345Z,250
2017-01-26T09:11:18.773Z,250
2017-01-26T09:12:19.613Z,250
2017-01-26T09:13:19.625Z,260
2017-01-26T09:14:19.047Z,260
2017-01-26T09:15:18.309Z,260
2017-01-26T09:16:18.021Z,265
2017-01-26T09:17:18.889Z,265
2017-01-26T09:18:18.928Z,265
2017-01-26T09:19:18.432Z,270
2017-01-26T09:20:18.576Z,270
2017-01-26T09:21:18.576Z,270
2017-01-26T09:22:18.926Z,275
2017-01-26T09:23:19.587Z,275
2017-01-26T09:24:18.267Z,275
2017-01-26T09:25:18.736Z,280
2017-01-26T09:26:19.957Z,280
2017-01-26T09:27:19.574Z,280
2017-01-26T09:28:19.959Z,285
2017-01-26T09:29:17.870Z,285
2017-01-26T09:30:19.249Z,285
2017-01-26T09:31:18.869Z,290
2017-01-26T09:32:19.439Z,290
2017-01-26T09:33:19.863Z,285
2017-01-26T09:34:19.779Z,285
2017-01-26T09:35:18.856Z,285
2017-01-26T09:36:19.827Z,285
2017-01-26T09:37:18.720Z,290
2017-01-26T09:38:20.800Z,285
2017-01-26T09:39:19.255Z,290
2017-01-26T09:40:19.564Z,290
2017-01-26T09:41:20.234Z,290
2017-01-26T09:42:18.902Z,290
2017-01-26T09:43:20.523Z,290
2017-01-26T09:44:20.258Z,295
2017-01-26T09:45:20.147Z,295
2017-01-26T09:46:19.712Z,295
2017-01-26T09:47:20.136Z,295
2017-01-26T09:48:19.703Z,295
2017-01-26T09:49:19.714Z,295
2017-01-26T09:50:20.273Z,280
2017-01-26T09:51:18.731Z,295
2017-01-26T09:52:18.807Z,295
2017-01-26T09:53:19.155Z,300
2017-01-26T09:54:19.639Z,300
2017-01-26T09:55:20.246Z,300
2017-01-26T09:56:19.990Z,300
2017-01-26T09:57:21.397Z,295
2017-01-26T09:58:19.587Z,300
2017-01-26T09:59:19.334Z,295
2017-01-26T10:00:19.971Z,295
2017-01-26T10:01:20.231Z,300
2017-01-26T10:02:19.564Z,300
2017-01-26T10:03:19.102Z,300
2017-01-26T10:04:19.135Z,300
2017-01-26T10:05:20.294Z,305
2017-01-26T10:06:19.935Z,300
2017-01-26T10:07:18.796Z,300
2017-01-26T10:08:20.630Z,300
2017-01-26T10:09:19.431Z,300
2017-01-26T10:10:19.673Z,300
2017-01-26T10:11:19.230Z,300
2017-01-26T10:12:19.499Z,300
2017-01-26T10:13:18.963Z,300
2017-01-26T10:14:19.378Z,305
2017-01-26T10:15:20.540Z,300
2017-01-26T10:16:18.788Z,300
2017-01-26T10:17:20.155Z,305
2017-01-26T10:18:19.918Z,305
2017-01-26T10:19:20.351Z,305
2017-01-26T10:20:21.463Z,305
2017-01-26T10:21:20.310Z,305
2017-01-26T10:22:19.294Z,310
2017-01-26T10:23:18.549Z,310
2017-01-26T10:24:20.016Z,310
2017-01-26T10:25:19.666Z,315
2017-01-26T10:26:19.952Z,315
2017-01-26T10:27:20.481Z,315
2017-01-26T10:28:19.784Z,315
2017-01-26T10:29:19.309Z,315
2017-01-26T10:30:20.483Z,315
2017-01-26T10:31:19.497Z,315
2017-01-26T10:32:20.269Z,320
2017-01-26T10:33:19.332Z,320
2017-01-26T10:34:19.752Z,320
2017-01-26T10:35:20.637Z,320
2017-01-26T10:36:20.128Z,320
2017-01-26T10:37:21.170Z,320
2017-01-26T10:38:19.763Z,320
2017-01-26T10:39:19.741Z,320
2017-01-26T10:40:19.320Z,320
2017-01-26T10:41:20.287Z,320
2017-01-26T10:42:20.969Z,320
2017-01-26T10:43:20.713Z,325
2017-01-26T10:44:19.369Z,325
2017-01-26T10:45:21.869Z,325
2017-01-26T10:46:20.347Z,325
2017-01-26T10:47:20.260Z,330
2017-01-26T10:48:19.045Z,325
2017-01-26T10:49:19.517Z,325
2017-01-26T10:50:20.641Z,330
2017-01-26T10:51:20.464Z,325
2017-01-26T10:52:20.092Z,330
2017-01-26T10:53:20.712Z,330
2017-01-26T10:54:20.922Z,330
2017-01-26T10:55:21.063Z,330
2017-01-26T10:56:20.805Z,330
2017-01-26T10:57:21.426Z,330
2017-01-26T10:58:20.830Z,330
2017-01-26T10:59:20.370Z,330
2017-01-26T11:00:20.397Z,330
2017-01-26T11:01:20.585Z,330
2017-01-26T11:02:21.961Z,330
2017-01-26T11:03:19.632Z,330
2017-01-26T11:04:22.142Z,330
2017-01-26T11:05:20.110Z,330
2017-01-26T11:06:21.420Z,330
2017-01-26T11:07:21.588Z,330
2017-01-26T11:08:20.461Z,330
2017-01-26T11:09:20.412Z,330
2017-01-26T11:10:21.013Z,330
2017-01-26T11:11:22.749Z,330
2017-01-26T11:12:20.507Z,330
2017-01-26T11:13:20.977Z,330
2017-01-26T11:14:21.429Z,330
2017-01-26T11:15:22.538Z,330
2017-01-26T11:16:21.084Z,330
2017-01-26T11:17:23.066Z,330
2017-01-26T11:18:20.550Z,330
2017-01-26T11:19:22.197Z,330
2017-01-26T11:20:21.143Z,330
2017-01-26T11:21:20.931Z,330
2017-01-26T11:22:20.977Z,335
2017-01-26T11:23:20.695Z,335
2017-01-26T11:24:21.691Z,335
2017-01-26T11:25:21.114Z,335
2017-01-26T11:26:20.973Z,335
2017-01-26T11:27:21.442Z,335
2017-01-26T11:28:21.630Z,335
2017-01-26T11:29:20.986Z,335
2017-01-26T11:30:21.235Z,335
2017-01-26T11:31:21.377Z,335
2017-01-26T11:32:21.271Z,335
2017-01-26T11:33:22.444Z,335
2017-01-26T11:34:21.732Z,335
2017-01-26T11:35:21.270Z,335
2017-01-26T11:36:21.437Z,335
2017-01-26T11:37:22.239Z,335
2017-01-26T11:39:25.992Z,335
2017-01-26T11:39:38.056Z,335
2017-01-26T11:40:38.307Z,330
2017-01-26T11:41:38.246Z,330
2017-01-26T11:42:37.672Z,330
2017-01-26T11:43:38.622Z,330
2017-01-26T11:44:36.655Z,330
2017-01-26T11:45:38.605Z,330
2017-01-26T11:46:39.515Z,330
2017-01-26T11:47:38.767Z,330
2017-01-26T11:48:38.985Z,330
2017-01-26T11:49:36.644Z,330
2017-01-26T11:50:39.064Z,330
2017-01-26T11:51:36.996Z,330
2017-01-26T11:52:38.730Z,330
2017-01-26T11:53:38.000Z,330
2017-01-26T11:54:37.682Z,330
2017-01-26T11:55:38.388Z,330
2017-01-26T11:56:38.697Z,330
2017-01-26T11:57:38.349Z,330
2017-01-26T11:58:38.776Z,330
2017-01-26T11:59:37.195Z,330
2017-01-26T12:00:37.906Z,330
2017-01-26T12:01:38.453Z,330
2017-01-26T12:02:38.337Z,330
2017-01-26T12:03:38.322Z,330
2017-01-26T12:04:37.737Z,330
2017-01-26T12:05:38.565Z,330
2017-01-26T12:06:37.240Z,330
2017-01-26T12:07:38.219Z,330
2017-01-26T12:08:40.293Z,330
2017-01-26T12:09:38.734Z,325
2017-01-26T12:10:38.561Z,325
2017-01-26T12:11:37.918Z,325
2017-01-26T12:12:38.333Z,325
2017-01-26T12:13:38.256Z,325
2017-01-26T12:14:39.174Z,330
2017-01-26T12:15:38.126Z,330
2017-01-26T12:16:38.298Z,325
2017-01-26T12:17:37.756Z,325
2017-01-26T12:18:38.967Z,325
2017-01-26T12:19:37.426Z,325
2017-01-26T12:20:39.107Z,320
2017-01-26T12:21:38.740Z,320
2017-01-26T12:22:38.122Z,320
2017-01-26T12:23:38.928Z,320
2017-01-26T12:24:38.280Z,320
2017-01-26T12:25:38.696Z,320
2017-01-26T12:26:38.976Z,315
2017-01-26T12:27:38.172Z,315
2017-01-26T12:28:38.558Z,315
2017-01-26T12:29:40.229Z,315
2017-01-26T12:30:38.609Z,315
2017-01-26T12:31:38.163Z,315
2017-01-26T12:32:38.169Z,315
2017-01-26T12:33:38.811Z,315
2017-01-26T12:34:38.140Z,315
2017-01-26T12:35:38.350Z,310
2017-01-26T12:36:38.637Z,310
2017-01-26T12:37:39.291Z,310
2017-01-26T12:38:38.325Z,310
2017-01-26T12:39:39.131Z,310
2017-01-26T12:40:38.728Z,310
2017-01-26T12:41:39.329Z,305
2017-01-26T12:42:40.426Z,305
2017-01-26T12:43:39.093Z,305
2017-01-26T12:44:39.502Z,305
2017-01-26T12:45:37.993Z,305
2017-01-26T12:46:38.634Z,305
2017-01-26T12:47:38.997Z,305
2017-01-26T12:48:37.784Z,305
2017-01-26T12:49:39.296Z,305
2017-01-26T12:50:39.021Z,305
2017-01-26T12:51:40.174Z,305
2017-01-26T12:52:39.202Z,300
2017-01-26T12:53:39.434Z,300
2017-01-26T12:54:38.472Z,300
2017-01-26T12:55:38.645Z,300
2017-01-26T12:56:39.641Z,300
2017-01-26T12:57:39.942Z,295
2017-01-26T12:58:38.346Z,295
2017-01-26T12:59:39.963Z,295
2017-01-26T13:00:39.677Z,295
2017-01-26T13:01:38.703Z,295
2017-01-26T13:02:38.433Z,295
2017-01-26T13:03:39.351Z,295
2017-01-26T13:04:40.582Z,295
2017-01-26T13:05:40.730Z,290
2017-01-26T13:06:39.215Z,290
2017-01-26T13:07:38.747Z,290
2017-01-26T13:08:38.214Z,290
2017-01-26T13:09:39.003Z,290
2017-01-26T13:10:39.134Z,290
2017-01-26T13:11:40.884Z,290
2017-01-26T13:12:38.059Z,285
2017-01-26T13:13:40.077Z,285
2017-01-26T13:14:39.478Z,285
2017-01-26T13:15:39.702Z,285
2017-01-26T13:16:39.288Z,285
2017-01-26T13:17:40.000Z,285
2017-01-26T13:18:39.577Z,285
2017-01-26T13:19:38.931Z,285
2017-01-26T13:20:39.498Z,285
2017-01-26T13:21:40.444Z,280
2017-01-26T13:22:39.488Z,280
2017-01-26T13:23:39.226Z,285
2017-01-26T13:24:39.385Z,280
2017-01-26T13:25:39.365Z,285
2017-01-26T13:27:40.573Z,280
2017-01-26T13:28:40.627Z,280
2017-01-26T13:29:41.470Z,275
2017-01-26T13:30:40.716Z,275
2017-01-26T13:31:40.095Z,275
2017-01-26T13:32:40.761Z,275
2017-01-26T13:33:39.762Z,275
2017-01-26T13:34:40.537Z,275
2017-01-26T13:35:41.458Z,270
2017-01-26T13:36:41.271Z,270
2017-01-26T13:37:43.072Z,270
2017-01-26T13:38:41.512Z,270
2017-01-26T13:39:41.030Z,265
2017-01-26T13:40:40.879Z,265
2017-01-26T13:41:42.267Z,265
2017-01-26T13:42:41.275Z,265
2017-01-26T13:43:41.251Z,265
2017-01-26T13:44:41.257Z,265
2017-01-26T13:45:42.014Z,260
2017-01-26T13:46:41.595Z,260
2017-01-26T13:47:41.345Z,260
2017-01-26T13:48:42.189Z,260
2017-01-26T13:49:41.215Z,260
2017-01-26T13:50:40.925Z,260
2017-01-26T13:51:41.856Z,260
2017-01-26T13:52:41.569Z,260
2017-01-26T13:53:40.279Z,255
2017-01-26T13:54:42.229Z,255
2017-01-26T13:55:42.631Z,255
2017-01-26T13:56:41.999Z,255
2017-01-26T13:57:41.097Z,255
2017-01-26T13:58:41.292Z,250
2017-01-26T13:59:41.093Z,250
2017-01-26T14:00:43.051Z,250
2017-01-26T14:01:41.185Z,250
2017-01-26T14:02:41.250Z,245
2017-01-26T14:03:40.994Z,245
2017-01-26T14:04:41.748Z,245
2017-01-26T14:05:42.321Z,245
2017-01-26T14:06:40.807Z,240
2017-01-26T14:07:41.872Z,240
2017-01-26T14:08:42.040Z,240
2017-01-26T14:09:40.953Z,240
2017-01-26T14:10:42.107Z,235
2017-01-26T14:11:43.174Z,235
2017-01-26T14:12:41.357Z,235
2017-01-26T14:13:42.464Z,230
2017-01-26T14:14:41.916Z,230
2017-01-26T14:15:41.871Z,225
2017-01-26T14:16:42.901Z,220
2017-01-26T14:17:40.989Z,215
2017-01-26T14:18:42.780Z,205